createdAt,value
2022-10-31T00:01:21.703Z,15.66
2022-10-31T00:03:49.564Z,15.69
2022-10-31T00:06:19.086Z,15.70
2022-10-31T00:08:48.493Z,15.93
2022-10-31T00:11:16.240Z,15.54
2022-10-31T00:13:43.874Z,15.46
2022-10-31T00:16:18.233Z,15.47
2022-10-31T00:18:46.068Z,15.46
2022-10-31T00:21:13.699Z,15.40
2022-10-31T00:23:41.380Z,15.57
2022-10-31T00:26:10.399Z,15.27
2022-10-31T00:28:38.080Z,15.10
2022-10-31T00:31:07.595Z,15.31
2022-10-31T00:33:35.879Z,15.31
2022-10-31T00:36:03.516Z,15.25
2022-10-31T00:38:31.160Z,15.57
2022-10-31T00:40:58.810Z,15.66
2022-10-31T00:43:27.798Z,15.68
2022-10-31T00:45:55.485Z,15.80
2022-10-31T00:48:23.111Z,15.89
2022-10-31T00:50:50.768Z,15.66
2022-10-31T00:53:18.428Z,15.83
2022-10-31T00:55:46.092Z,15.63
2022-10-31T01:00:46.709Z,15.90
2022-10-31T01:03:17.167Z,15.89
2022-10-31T01:05:44.821Z,15.62
2022-10-31T01:08:12.458Z,15.55
2022-10-31T01:10:40.081Z,15.39
2022-10-31T01:13:07.724Z,15.73
2022-10-31T01:15:35.347Z,15.79
2022-10-31T01:18:04.488Z,15.67
2022-10-31T01:20:32.145Z,15.83
2022-10-31T01:22:59.764Z,15.73
2022-10-31T01:25:27.526Z,15.64
2022-10-31T01:27:55.155Z,15.36
2022-10-31T01:30:22.808Z,15.41
2022-10-31T01:32:50.523Z,15.42
2022-10-31T01:35:19.535Z,15.38
2022-10-31T01:37:47.174Z,15.11
2022-10-31T01:40:14.824Z,15.18
2022-10-31T01:42:42.457Z,15.11
2022-10-31T01:45:12.515Z,14.76
2022-10-31T01:47:43.759Z,14.76
2022-10-31T01:50:21.637Z,14.71
2022-10-31T01:52:51.597Z,14.92
2022-10-31T01:55:25.219Z,15.18
2022-10-31T01:58:00.631Z,15.21
2022-10-31T02:00:28.533Z,15.19
2022-10-31T02:02:57.104Z,15.27
2022-10-31T02:05:28.536Z,15.31
2022-10-31T02:07:57.856Z,14.91
2022-10-31T02:10:26.001Z,15.21
2022-10-31T02:12:55.242Z,14.99
2022-10-31T02:15:22.885Z,15.08
2022-10-31T02:17:50.748Z,15.01
2022-10-31T02:20:20.483Z,15.09
2022-10-31T02:23:09.087Z,15.02
2022-10-31T02:25:53.395Z,14.98
2022-10-31T02:28:47.120Z,15.04
2022-10-31T02:31:23.895Z,15.03
2022-10-31T02:33:54.212Z,15.06
2022-10-31T02:36:27.957Z,15.02
2022-10-31T02:39:03.417Z,15.05
2022-10-31T02:41:35.299Z,14.95
2022-10-31T02:44:08.290Z,14.85
2022-10-31T02:46:41.286Z,14.42
2022-10-31T02:49:13.531Z,14.55
2022-10-31T02:51:41.598Z,14.54
2022-10-31T02:54:23.449Z,14.36
2022-10-31T02:56:52.838Z,13.99
2022-10-31T02:59:20.971Z,14.11
2022-10-31T03:02:20.046Z,14.31
2022-10-31T03:05:14.193Z,13.86
2022-10-31T03:07:44.788Z,13.90
2022-10-31T03:10:19.748Z,14.10
2022-10-31T03:12:52.927Z,14.17
2022-10-31T03:15:24.720Z,14.20
2022-10-31T03:17:57.410Z,14.21
2022-10-31T03:20:29.652Z,14.05
2022-10-31T03:22:57.487Z,14.25
2022-10-31T03:25:25.640Z,14.37
2022-10-31T03:27:53.668Z,14.45
2022-10-31T03:30:21.535Z,14.36
2022-10-31T03:32:52.034Z,14.35
2022-10-31T03:35:23.276Z,14.39
2022-10-31T03:37:53.721Z,14.40
2022-10-31T03:40:23.454Z,14.14
2022-10-31T03:42:55.671Z,13.85
2022-10-31T03:45:25.919Z,13.43
2022-10-31T03:47:54.706Z,13.41
2022-10-31T03:50:26.003Z,13.70
2022-10-31T03:52:57.539Z,13.48
2022-10-31T03:55:28.735Z,13.82
2022-10-31T03:58:00.148Z,13.86
2022-10-31T04:00:28.416Z,13.93
2022-10-31T04:02:58.353Z,13.79
2022-10-31T04:05:27.595Z,13.68
2022-10-31T04:07:57.210Z,13.77
2022-10-31T04:10:30.208Z,13.81
2022-10-31T04:13:03.989Z,13.94
2022-10-31T04:15:33.307Z,13.78
2022-10-31T04:18:01.740Z,13.70
2022-10-31T04:20:36.006Z,13.61
2022-10-31T04:23:04.700Z,13.49
2022-10-31T04:25:32.341Z,13.47
2022-10-31T04:28:00.307Z,13.31
2022-10-31T04:30:28.215Z,13.30
2022-10-31T04:32:55.845Z,13.24
2022-10-31T04:35:23.495Z,13.20
2022-10-31T04:37:52.489Z,13.48
2022-10-31T04:40:20.114Z,13.58
2022-10-31T04:42:47.777Z,13.56
2022-10-31T04:45:18.471Z,13.52
2022-10-31T04:47:48.789Z,13.48
2022-10-31T04:50:16.615Z,13.46
2022-10-31T04:52:45.056Z,13.32
2022-10-31T04:55:15.066Z,13.08
2022-10-31T04:57:43.768Z,13.03
2022-10-31T05:00:12.905Z,12.96
2022-10-31T05:02:45.520Z,12.79
2022-10-31T05:05:13.754Z,13.01
2022-10-31T05:07:42.517Z,12.83
2022-10-31T05:10:11.821Z,12.77
2022-10-31T05:12:42.586Z,12.70
2022-10-31T05:15:10.335Z,12.65
2022-10-31T05:17:37.800Z,12.48
2022-10-31T05:20:05.646Z,12.53
2022-10-31T05:22:33.107Z,12.47
2022-10-31T05:25:00.542Z,12.48
2022-10-31T05:27:28.016Z,12.45
2022-10-31T05:29:56.839Z,12.34
2022-10-31T05:32:24.398Z,12.32
2022-10-31T05:34:51.856Z,12.33
2022-10-31T05:37:19.331Z,12.42
2022-10-31T05:39:46.774Z,12.53
2022-10-31T05:42:14.235Z,12.44
2022-10-31T05:44:41.700Z,12.35
2022-10-31T05:47:10.641Z,12.26
2022-10-31T05:49:38.086Z,12.13
2022-10-31T05:52:05.802Z,12.20
2022-10-31T05:54:33.414Z,12.26
2022-10-31T05:57:00.920Z,12.24
2022-10-31T05:59:28.404Z,12.18
2022-10-31T06:01:55.977Z,12.24
2022-10-31T06:04:24.847Z,12.20
2022-10-31T06:06:52.399Z,12.27
2022-10-31T06:09:19.849Z,12.38
2022-10-31T06:11:47.471Z,12.46
2022-10-31T06:14:14.968Z,12.55
2022-10-31T06:16:42.452Z,12.59
2022-10-31T06:19:09.918Z,12.63
2022-10-31T06:21:38.762Z,12.63
2022-10-31T06:24:06.639Z,12.61
2022-10-31T06:26:34.111Z,12.70
2022-10-31T06:29:04.039Z,12.80
2022-10-31T06:31:32.727Z,12.92
2022-10-31T06:34:00.191Z,13.03
2022-10-31T06:39:01.948Z,13.00
2022-10-31T06:41:29.477Z,12.97
2022-10-31T06:43:56.963Z,12.93
2022-10-31T06:46:24.444Z,12.89
2022-10-31T06:48:51.908Z,12.89
2022-10-31T06:51:19.380Z,12.79
2022-10-31T06:53:46.844Z,12.69
2022-10-31T06:56:15.679Z,12.74
2022-10-31T06:58:43.134Z,12.60
2022-10-31T07:01:10.698Z,12.58
2022-10-31T07:03:38.211Z,12.54
2022-10-31T07:06:05.831Z,12.47
2022-10-31T07:08:33.307Z,12.46
2022-10-31T07:11:00.769Z,12.43
2022-10-31T07:13:29.588Z,12.50
2022-10-31T07:15:57.527Z,12.58
2022-10-31T07:18:24.956Z,12.60
2022-10-31T07:20:53.387Z,12.60
2022-10-31T07:23:20.955Z,12.58
2022-10-31T07:25:48.420Z,12.60
2022-10-31T07:28:15.888Z,12.66
2022-10-31T07:30:44.716Z,12.67
2022-10-31T07:33:12.170Z,12.75
2022-10-31T07:35:39.631Z,12.83
2022-10-31T07:38:10.523Z,12.90
2022-10-31T07:40:38.133Z,12.97
2022-10-31T07:43:08.858Z,13.05
2022-10-31T07:45:40.622Z,13.12
2022-10-31T07:48:09.436Z,13.36
2022-10-31T07:50:36.968Z,13.50
2022-10-31T07:53:05.210Z,13.68
2022-10-31T07:55:32.918Z,13.86
2022-10-31T07:58:00.945Z,14.03
2022-10-31T08:00:28.702Z,14.16
2022-10-31T08:03:00.287Z,14.27
2022-10-31T08:05:29.666Z,14.47
2022-10-31T08:07:57.477Z,14.53
2022-10-31T08:10:25.286Z,14.83
2022-10-31T08:12:57.189Z,14.99
2022-10-31T08:15:24.722Z,14.91
2022-10-31T08:17:52.222Z,15.06
2022-10-31T08:20:19.803Z,15.22
2022-10-31T08:22:55.925Z,15.41
2022-10-31T08:25:23.407Z,15.58
2022-10-31T08:27:51.512Z,15.77
2022-10-31T08:30:19.110Z,15.82
2022-10-31T08:32:46.684Z,15.89
2022-10-31T08:35:14.226Z,16.07
2022-10-31T08:37:41.650Z,16.24
2022-10-31T08:40:11.988Z,16.31
2022-10-31T08:42:39.414Z,16.36
2022-10-31T08:45:07.046Z,16.42
2022-10-31T08:47:34.508Z,16.51
2022-10-31T08:50:01.957Z,16.72
2022-10-31T08:52:58.856Z,16.91
2022-10-31T08:55:18.316Z,17.14
2022-10-31T08:57:45.785Z,17.39
2022-10-31T09:00:13.600Z,17.47
2022-10-31T09:02:41.031Z,17.44
2022-10-31T09:05:08.929Z,17.79
2022-10-31T09:07:36.413Z,17.91
2022-10-31T09:10:03.930Z,17.50
2022-10-31T09:12:32.734Z,17.87
2022-10-31T09:15:01.766Z,17.74
2022-10-31T09:17:30.087Z,18.33
2022-10-31T09:19:58.047Z,18.37
2022-10-31T09:22:25.516Z,18.23
2022-10-31T09:24:52.984Z,18.74
2022-10-31T09:27:20.412Z,18.45
2022-10-31T09:29:49.222Z,18.31
2022-10-31T09:32:16.716Z,18.42
2022-10-31T09:34:44.149Z,18.13
2022-10-31T09:37:11.605Z,18.44
2022-10-31T09:39:41.143Z,18.27
2022-10-31T09:42:19.015Z,18.76
2022-10-31T09:44:50.129Z,18.88
2022-10-31T09:47:19.554Z,18.71
2022-10-31T09:49:56.038Z,17.81
2022-10-31T09:52:25.105Z,17.68
2022-10-31T09:54:53.890Z,17.99
2022-10-31T09:57:22.132Z,17.98
2022-10-31T09:59:50.947Z,17.97
2022-10-31T10:02:19.070Z,18.20
2022-10-31T10:04:46.937Z,18.54
2022-10-31T10:07:16.253Z,18.90
2022-10-31T10:09:43.723Z,19.33
2022-10-31T10:12:12.228Z,19.16
2022-10-31T10:14:46.480Z,19.26
2022-10-31T10:17:18.141Z,18.76
2022-10-31T10:19:52.352Z,18.90
2022-10-31T10:22:21.424Z,18.51
2022-10-31T10:24:56.495Z,18.31
2022-10-31T10:27:25.824Z,19.05
2022-10-31T10:29:54.853Z,19.18
2022-10-31T10:32:24.548Z,18.70
2022-10-31T10:34:53.012Z,18.68
2022-10-31T10:37:24.098Z,18.94
2022-10-31T10:39:52.368Z,19.18
2022-10-31T10:42:37.487Z,19.04
2022-10-31T10:45:26.383Z,19.95
2022-10-31T10:47:58.134Z,19.88
2022-10-31T10:50:26.854Z,18.52
2022-10-31T10:53:00.132Z,19.67
2022-10-31T10:55:30.212Z,20.26
2022-10-31T10:57:58.617Z,19.53
2022-10-31T11:00:27.043Z,18.66
2022-10-31T11:02:56.551Z,18.94
2022-10-31T11:05:31.980Z,19.50
2022-10-31T11:07:59.708Z,19.11
2022-10-31T11:10:27.860Z,19.00
2022-10-31T11:13:06.095Z,19.28
2022-10-31T11:15:37.649Z,19.13
2022-10-31T11:18:07.028Z,19.00
2022-10-31T11:20:36.740Z,18.95
2022-10-31T11:23:07.842Z,18.90
2022-10-31T11:25:35.740Z,19.25
2022-10-31T11:28:05.049Z,19.52
2022-10-31T11:30:37.794Z,18.97
2022-10-31T11:33:06.841Z,19.33
2022-10-31T11:35:34.734Z,19.84
2022-10-31T11:38:03.323Z,19.79
2022-10-31T11:40:31.384Z,19.92
2022-10-31T11:43:00.693Z,20.25
2022-10-31T11:45:32.037Z,20.61
2022-10-31T11:48:01.949Z,19.83
2022-10-31T11:50:35.108Z,20.35
2022-10-31T11:53:03.845Z,20.10
2022-10-31T11:55:34.215Z,20.35
2022-10-31T11:58:02.224Z,20.29
2022-10-31T12:00:32.380Z,20.60
2022-10-31T12:03:08.795Z,20.38
2022-10-31T12:05:39.068Z,20.36
2022-10-31T12:08:08.371Z,20.66
2022-10-31T12:10:42.991Z,20.45
2022-10-31T12:13:21.123Z,20.29
2022-10-31T12:15:54.943Z,19.97
2022-10-31T12:18:44.424Z,19.67
2022-10-31T12:21:21.895Z,19.99
2022-10-31T12:23:57.961Z,20.30
2022-10-31T12:26:31.257Z,19.82
2022-10-31T12:29:11.920Z,19.54
2022-10-31T12:31:48.952Z,19.76
2022-10-31T12:34:47.727Z,19.54
2022-10-31T12:37:26.156Z,19.60
2022-10-31T12:40:02.255Z,19.97
2022-10-31T12:42:42.323Z,19.33
2022-10-31T12:45:33.107Z,19.20
2022-10-31T12:48:16.028Z,19.49
2022-10-31T12:50:54.312Z,19.94
2022-10-31T12:53:33.377Z,19.36
2022-10-31T12:56:12.251Z,19.63
2022-10-31T12:58:44.251Z,19.39
2022-10-31T13:01:16.884Z,19.69
2022-10-31T13:03:49.030Z,19.83
2022-10-31T13:06:21.283Z,19.09
2022-10-31T13:08:54.286Z,19.55
2022-10-31T13:11:24.378Z,19.81
2022-10-31T13:13:57.620Z,19.46
2022-10-31T13:16:28.057Z,20.09
2022-10-31T13:19:01.183Z,19.85
2022-10-31T13:21:39.541Z,19.98
2022-10-31T13:24:13.688Z,19.74
2022-10-31T13:26:47.168Z,19.77
2022-10-31T13:29:20.631Z,19.59
2022-10-31T13:31:48.408Z,19.81
2022-10-31T13:34:26.964Z,19.30
2022-10-31T13:37:00.532Z,19.52
2022-10-31T13:39:36.963Z,19.65
2022-10-31T13:42:10.571Z,19.58
2022-10-31T13:44:39.471Z,19.84
2022-10-31T13:47:23.198Z,20.14
2022-10-31T13:49:51.605Z,19.90
2022-10-31T13:52:26.268Z,19.38
2022-10-31T13:54:57.744Z,19.78
2022-10-31T13:57:34.411Z,20.07
2022-10-31T14:00:04.961Z,19.77
2022-10-31T14:02:33.853Z,19.55
2022-10-31T14:05:03.181Z,19.72
2022-10-31T14:07:33.932Z,19.65
2022-10-31T14:10:04.720Z,19.82
2022-10-31T14:12:35.061Z,20.06
2022-10-31T14:15:06.817Z,19.17
2022-10-31T14:17:41.739Z,19.71
2022-10-31T14:20:32.963Z,19.86
2022-10-31T14:25:36.552Z,19.72
2022-10-31T14:28:19.691Z,19.63
2022-10-31T14:30:54.154Z,19.61
2022-10-31T14:33:22.364Z,19.76
2022-10-31T14:35:55.228Z,19.26
2022-10-31T14:38:31.560Z,19.62
2022-10-31T14:41:13.416Z,19.68
2022-10-31T14:43:54.415Z,19.36
2022-10-31T14:46:32.848Z,19.15
2022-10-31T14:49:22.615Z,19.71
2022-10-31T14:51:51.059Z,19.51
2022-10-31T14:54:22.172Z,19.05
2022-10-31T14:56:54.639Z,19.47
2022-10-31T14:59:26.673Z,19.44
2022-10-31T15:01:58.774Z,18.92
2022-10-31T15:04:28.299Z,19.22
2022-10-31T15:07:00.330Z,19.11
2022-10-31T15:09:30.856Z,19.13
2022-10-31T15:12:01.506Z,19.38
2022-10-31T15:14:30.857Z,19.32
2022-10-31T15:16:59.766Z,19.12
2022-10-31T15:19:28.560Z,19.31
2022-10-31T15:21:57.982Z,19.27
2022-10-31T15:24:26.926Z,19.02
2022-10-31T15:26:56.914Z,18.87
2022-10-31T15:29:28.187Z,19.19
2022-10-31T15:31:57.297Z,19.19
2022-10-31T15:34:28.727Z,19.02
2022-10-31T15:36:56.395Z,18.55
2022-10-31T15:39:24.117Z,18.56
2022-10-31T15:41:54.984Z,18.39
2022-10-31T15:44:26.923Z,18.54
2022-10-31T15:46:56.717Z,19.06
2022-10-31T15:49:37.127Z,18.99
2022-10-31T15:52:07.313Z,18.55
2022-10-31T15:54:35.170Z,18.41
2022-10-31T15:57:02.847Z,18.73
2022-10-31T15:59:32.126Z,18.50
2022-10-31T16:02:03.141Z,18.60
2022-10-31T16:04:31.588Z,18.23
2022-10-31T16:07:01.764Z,18.44
2022-10-31T16:09:29.634Z,18.30
2022-10-31T16:11:58.736Z,18.03
2022-10-31T16:14:28.424Z,17.77
2022-10-31T16:16:59.189Z,18.41
2022-10-31T16:19:30.228Z,18.20
2022-10-31T16:22:06.408Z,18.28
2022-10-31T16:24:35.605Z,17.76
2022-10-31T16:27:06.091Z,17.96
2022-10-31T16:29:40.417Z,17.44
2022-10-31T16:32:34.860Z,17.85
2022-10-31T16:35:19.384Z,17.66
2022-10-31T16:37:47.071Z,18.03
2022-10-31T16:40:15.860Z,18.07
2022-10-31T16:42:44.017Z,17.79
2022-10-31T16:45:17.265Z,17.89
2022-10-31T16:47:46.327Z,18.02
2022-10-31T16:50:16.031Z,18.00
2022-10-31T16:53:08.286Z,18.18
2022-10-31T16:55:35.868Z,18.11
2022-10-31T16:58:04.083Z,17.78
2022-10-31T17:00:31.827Z,17.91
2022-10-31T17:03:01.227Z,17.86
2022-10-31T17:05:30.374Z,17.85
2022-10-31T17:07:58.466Z,17.55
2022-10-31T17:10:26.874Z,17.83
2022-10-31T17:12:54.904Z,17.99
2022-10-31T17:15:25.255Z,17.82
2022-10-31T17:17:53.245Z,17.48
2022-10-31T17:20:24.136Z,17.93
2022-10-31T17:22:52.144Z,18.07
2022-10-31T17:25:22.603Z,18.23
2022-10-31T17:27:50.550Z,18.32
2022-10-31T17:30:19.529Z,17.69
2022-10-31T17:32:47.844Z,18.03
2022-10-31T17:35:16.344Z,17.96
2022-10-31T17:37:46.104Z,17.56
2022-10-31T17:40:15.292Z,17.94
2022-10-31T17:42:43.077Z,17.78
2022-10-31T17:45:13.245Z,17.68
2022-10-31T17:47:40.874Z,17.96
2022-10-31T17:50:09.483Z,18.05
2022-10-31T17:52:37.130Z,18.29
2022-10-31T17:55:06.888Z,17.63
2022-10-31T17:57:35.635Z,17.63
2022-10-31T18:00:03.713Z,17.59
2022-10-31T18:02:31.455Z,17.99
2022-10-31T18:04:59.203Z,17.40
2022-10-31T18:07:27.570Z,17.80
2022-10-31T18:09:55.300Z,17.45
2022-10-31T18:12:24.798Z,17.60
2022-10-31T18:14:52.538Z,17.30
2022-10-31T18:17:20.636Z,17.59
2022-10-31T18:19:48.389Z,17.72
2022-10-31T18:22:16.416Z,17.80
2022-10-31T18:24:44.089Z,17.69
2022-10-31T18:27:11.712Z,17.71
2022-10-31T18:29:40.727Z,17.62
2022-10-31T18:32:09.782Z,17.66
2022-10-31T18:34:37.723Z,17.71
2022-10-31T18:37:05.588Z,17.97
2022-10-31T18:39:33.258Z,17.65
2022-10-31T18:42:00.937Z,17.63
2022-10-31T18:44:28.619Z,18.08
2022-10-31T18:46:57.616Z,17.62
2022-10-31T18:49:25.971Z,17.66
2022-10-31T18:51:53.763Z,17.60
2022-10-31T18:54:21.429Z,17.96
2022-10-31T18:56:49.338Z,17.84
2022-10-31T18:59:17.009Z,17.80
2022-10-31T19:01:44.769Z,17.88
2022-10-31T19:04:13.884Z,17.53
2022-10-31T19:06:41.570Z,17.42
2022-10-31T19:09:10.337Z,17.69
2022-10-31T19:11:38.654Z,17.69
2022-10-31T19:14:08.277Z,17.35
2022-10-31T19:16:36.491Z,17.85
2022-10-31T19:19:04.402Z,18.00
2022-10-31T19:21:33.525Z,17.71
2022-10-31T19:24:01.649Z,17.64
2022-10-31T19:26:29.703Z,17.88
2022-10-31T19:28:57.722Z,18.02
2022-10-31T19:31:25.536Z,17.52
2022-10-31T19:33:53.180Z,17.29
2022-10-31T19:36:21.400Z,17.43
2022-10-31T19:38:52.210Z,17.28
2022-10-31T19:41:22.745Z,17.71
2022-10-31T19:43:51.187Z,17.10
2022-10-31T19:46:27.735Z,17.87
2022-10-31T19:49:02.049Z,17.10
2022-10-31T19:51:29.795Z,17.60
2022-10-31T19:53:58.809Z,17.07
2022-10-31T19:56:26.681Z,17.02
2022-10-31T19:58:54.525Z,16.99
2022-10-31T20:01:24.660Z,17.23
2022-10-31T20:03:52.954Z,17.24
2022-10-31T20:06:23.494Z,17.27
2022-10-31T20:08:52.369Z,17.10
2022-10-31T20:11:21.401Z,17.15
2022-10-31T20:13:49.183Z,17.06
2022-10-31T20:16:17.508Z,17.10
2022-10-31T20:18:45.365Z,17.10
2022-10-31T20:21:15.838Z,16.97
2022-10-31T20:23:43.895Z,17.11
2022-10-31T20:26:13.662Z,16.87
2022-10-31T20:28:43.660Z,16.87
2022-10-31T20:31:12.848Z,16.99
2022-10-31T20:33:40.511Z,16.53
2022-10-31T20:36:09.684Z,16.93
2022-10-31T20:38:38.812Z,16.92
2022-10-31T20:41:08.348Z,16.89
2022-10-31T20:43:36.403Z,17.02
2022-10-31T20:46:07.183Z,16.70
2022-10-31T20:50:09.438Z,17.02
2022-10-31T20:52:37.373Z,17.11
2022-10-31T20:55:05.045Z,16.82
2022-10-31T20:57:32.519Z,16.80
2022-10-31T21:00:00.049Z,16.87
2022-10-31T21:02:27.601Z,16.62
2022-10-31T21:04:55.154Z,16.87
2022-10-31T21:07:23.979Z,16.92
2022-10-31T21:09:51.435Z,16.86
2022-10-31T21:12:18.882Z,16.96
2022-10-31T21:14:46.348Z,16.97
2022-10-31T21:17:13.787Z,16.68
2022-10-31T21:19:41.264Z,16.64
2022-10-31T21:22:08.848Z,16.92
2022-10-31T21:24:37.695Z,16.67
2022-10-31T21:27:08.508Z,16.87
2022-10-31T21:29:39.398Z,16.75
2022-10-31T21:32:06.988Z,16.94
2022-10-31T21:34:34.438Z,16.90
2022-10-31T21:37:01.892Z,16.68
2022-10-31T21:39:29.412Z,16.55
2022-10-31T21:41:58.216Z,16.67
2022-10-31T21:44:25.696Z,16.75
2022-10-31T21:46:53.135Z,16.72
2022-10-31T21:49:20.654Z,16.90
2022-10-31T21:51:48.099Z,16.93
2022-10-31T21:54:33.188Z,16.75
2022-10-31T21:57:03.241Z,16.85
2022-10-31T21:59:33.164Z,16.78
2022-10-31T22:02:03.919Z,16.83
2022-10-31T22:04:31.428Z,16.74
2022-10-31T22:06:58.874Z,16.87
2022-10-31T22:09:26.402Z,16.85
2022-10-31T22:11:53.844Z,16.79
2022-10-31T22:14:22.647Z,16.84
2022-10-31T22:16:50.108Z,16.88
2022-10-31T22:19:17.560Z,16.68
2022-10-31T22:21:46.348Z,16.58
2022-10-31T22:24:14.066Z,16.64
2022-10-31T22:26:41.648Z,16.64
2022-10-31T22:29:11.248Z,16.68
2022-10-31T22:31:40.683Z,16.78
2022-10-31T22:34:08.171Z,16.74
2022-10-31T22:36:35.878Z,16.89
2022-10-31T22:39:03.361Z,16.49
2022-10-31T22:41:31.562Z,16.84
2022-10-31T22:43:59.352Z,16.62
2022-10-31T22:46:27.774Z,16.81
2022-10-31T22:48:56.997Z,16.75
2022-10-31T22:51:25.252Z,16.70
2022-10-31T22:53:52.772Z,16.79
2022-10-31T22:56:21.248Z,16.74
2022-10-31T22:58:48.787Z,16.61
2022-10-31T23:01:16.911Z,16.68
2022-10-31T23:03:44.612Z,16.37
2022-10-31T23:06:13.886Z,16.48
2022-10-31T23:08:41.434Z,16.34
2022-10-31T23:11:15.798Z,16.54
2022-10-31T23:14:00.700Z,16.45
2022-10-31T23:16:28.160Z,16.70
2022-10-31T23:18:55.642Z,16.55
2022-10-31T23:21:53.698Z,16.53
2022-10-31T23:24:21.947Z,16.52
2022-10-31T23:27:07.491Z,16.45
2022-10-31T23:29:35.207Z,16.60
2022-10-31T23:32:02.828Z,16.57
2022-10-31T23:34:30.650Z,16.34
2022-10-31T23:36:59.507Z,16.57
2022-10-31T23:39:27.014Z,16.49
2022-10-31T23:41:54.461Z,16.46
2022-10-31T23:44:21.967Z,16.34
2022-10-31T23:46:49.453Z,16.47
2022-10-31T23:49:17.459Z,16.17
2022-10-31T23:51:44.931Z,16.65
2022-10-31T23:54:13.763Z,16.57
2022-10-31T23:56:41.244Z,16.65
2022-10-31T23:59:08.871Z,16.62
